»·PEaware :: N101JP KCMA-KCRQ

N101JP :: KCMA-KCRQ

FLIGHT INFORMATION

Flight Status: Arrived
Operator: Privately registered:
United States
More flights under this callsign
Pilot: James T. (870)
Aircraft: PILATUS PC-12 EAGLE
(PC12)
More flights by this aircraft type
Origin: KCMA Camarillo
United States
Destination: KCRQ McClellan-Palomar
United States
More flights between these airports :: More routes between these airports
Route: VTU V208 SXC V208 OCN
File this flight plan on PilotEdge
Remarks:
Altitude:
(Current/Filed)
90ft
Speed:
(Current/Filed)
200kts
Departed: 29-Jun-15 05:15 PM
Arrived: 29-Jun-15 06:08 PM
Distance/Time
Traveled:
112nm/0:52
Distance/Time
To Go:
Arrived

Flight Plot

Page will automatically refresh every two minutes.


Map Options




Map Legend


Flown Route
Filed Route
Departure Airport
Arrival Airport
Navaid (VOR, NDB)
Fix

Horizontal Profiles

Position Reports

Time Latitude Longitude Heading Altitude Ground
Speed
29-Jun-15 16:51 34.209946 -119.075546 90 82ft 0kts
29-Jun-15 16:52 34.209946 -119.075546 90 82ft 0kts
29-Jun-15 16:53 34.209946 -119.075546 90 82ft 0kts
29-Jun-15 16:59 34.209745 -119.074963 90 82ft 0kts
29-Jun-15 17:00 34.209745 -119.074963 90 82ft 0kts
29-Jun-15 17:01 34.209745 -119.074963 90 82ft 0kts
29-Jun-15 17:02 34.209745 -119.074963 90 82ft 0kts
29-Jun-15 17:03 34.209745 -119.074963 90 82ft 0kts
29-Jun-15 17:04 34.209745 -119.074963 90 82ft 0kts
29-Jun-15 17:05 34.210400 -119.074218 41 82ft 0kts
29-Jun-15 17:06 34.210563 -119.073972 51 82ft 0kts
29-Jun-15 17:07 34.210676 -119.073852 31 82ft 0kts
29-Jun-15 17:08 34.210738 -119.074287 267 82ft 5kts
29-Jun-15 17:09 34.210737 -119.074445 270 82ft 4kts
29-Jun-15 17:10 34.210777 -119.078570 270 83ft 17kts
29-Jun-15 17:11 34.210869 -119.083428 287 83ft 12kts
29-Jun-15 17:12 34.212887 -119.083715 3 82ft 0kts
29-Jun-15 17:13 34.213368 -119.083741 344 82ft 9kts
29-Jun-15 17:14 34.214964 -119.105954 278 482ft 140kts
29-Jun-15 17:15 34.221129 -119.155458 278 2179ft 152kts
29-Jun-15 17:16 34.201146 -119.185009 150 3784ft 174kts
29-Jun-15 17:17 34.170979 -119.139308 128 5419ft 177kts
29-Jun-15 17:18 34.141494 -119.093334 126 6958ft 176kts
29-Jun-15 17:19 34.112483 -119.048475 162 8376ft 171kts
29-Jun-15 17:20 34.065572 -119.043973 183 9116ft 192kts
29-Jun-15 17:21 34.007510 -119.036042 177 9107ft 223kts
29-Jun-15 17:22 33.946440 -119.030233 177 9102ft 231kts
29-Jun-15 17:23 33.885032 -119.024474 177 9062ft 233kts
29-Jun-15 17:24 33.823065 -119.018677 177 9061ft 232kts
29-Jun-15 17:25 33.770380 -118.984978 132 9081ft 237kts
29-Jun-15 17:26 33.728692 -118.925898 131 9069ft 241kts
29-Jun-15 17:27 33.687022 -118.865714 132 9059ft 239kts
29-Jun-15 17:28 33.646000 -118.806699 132 9071ft 233kts
29-Jun-15 17:29 33.605923 -118.749227 131 9093ft 229kts
29-Jun-15 17:30 33.565216 -118.690934 131 9099ft 228kts
29-Jun-15 17:31 33.525053 -118.633524 131 9099ft 227kts
29-Jun-15 17:32 33.484805 -118.576091 131 9099ft 227kts
29-Jun-15 17:33 33.444921 -118.519264 131 9099ft 226kts
29-Jun-15 17:34 33.404378 -118.461584 131 9100ft 226kts
29-Jun-15 17:35 33.372820 -118.397985 101 9098ft 230kts
29-Jun-15 17:36 33.362334 -118.322176 100 9099ft 230kts
29-Jun-15 17:37 33.352316 -118.246282 100 9091ft 231kts
29-Jun-15 17:38 33.342242 -118.170030 100 9093ft 231kts
29-Jun-15 17:39 33.332129 -118.093761 100 9077ft 232kts
29-Jun-15 17:40 33.321902 -118.016969 100 9068ft 233kts
29-Jun-15 17:41 33.311617 -117.940121 100 9051ft 234kts
29-Jun-15 17:42 33.301479 -117.863577 100 9029ft 235kts
29-Jun-15 17:43 33.291067 -117.786059 101 8991ft 236kts
29-Jun-15 17:44 33.280599 -117.708951 102 8983ft 228kts
29-Jun-15 17:45 33.270899 -117.637868 102 8547ft 220kts
29-Jun-15 17:46 33.260636 -117.562918 102 7090ft 233kts
29-Jun-15 17:47 33.250178 -117.486758 102 5993ft 219kts
29-Jun-15 17:48 33.240942 -117.419860 101 5999ft 196kts
29-Jun-15 17:49 33.232689 -117.350044 100 5300ft 210kts
29-Jun-15 17:50 33.224688 -117.282241 99 5299ft 202kts
29-Jun-15 17:51 33.226850 -117.217530 63 5300ft 201kts
29-Jun-15 17:52 33.252321 -117.158021 61 5312ft 199kts
29-Jun-15 17:53 33.273482 -117.109296 61 5314ft 198kts
29-Jun-15 17:54 33.301989 -117.042064 69 5323ft 188kts
29-Jun-15 17:55 33.299262 -116.983224 114 5313ft 179kts
29-Jun-15 17:56 33.272435 -116.947892 150 5330ft 171kts
29-Jun-15 17:57 33.231688 -116.937298 189 5291ft 143kts
29-Jun-15 17:58 33.196905 -116.954323 220 4844ft 152kts
29-Jun-15 17:59 33.174519 -116.993219 255 4290ft 125kts
29-Jun-15 18:00 33.166911 -117.039672 259 3151ft 151kts
29-Jun-15 18:01 33.160100 -117.082220 259 3091ft 119kts
29-Jun-15 18:02 33.153963 -117.120366 258 2971ft 119kts
29-Jun-15 18:03 33.147882 -117.158225 258 2340ft 112kts
29-Jun-15 18:04 33.142028 -117.194803 258 1710ft 112kts
29-Jun-15 18:05 33.136176 -117.231011 258 1080ft 107kts
29-Jun-15 18:06 33.130952 -117.263411 258 515ft 90kts
29-Jun-15 18:07 33.127532 -117.279496 169 337ft 11kts
29-Jun-15 18:08 33.127261 -117.276408 353 336ft 0kts

Navigation Log

Ident Type
Flight plan parsing failed, navigation log unavailable